Home > Products > Valid Products > TAF

000
FTUS41 KRLX 111759
TAFBKW
TAF
KBKW 111759Z 1118/1218 30010G15KT P6SM SCT030
      TEMPO 1118/1120 5SM -SHSN BKN030
     FM120000 31006KT P6SM SCT045
     FM120400 00000KT P6SM SCT070
     FM120800 00000KT P6SM BKN070
     FM121500 22006KT 4SM -SN OVC020=



000
FTUS41 KRLX 111759
TAFBKW
TAF
KBKW 111759Z 1118/1218 30010G15KT P6SM SCT030
      TEMPO 1118/1120 5SM -SHSN BKN030
     FM120000 31006KT P6SM SCT045
     FM120400 00000KT P6SM SCT070
     FM120800 00000KT P6SM BKN070
     FM121500 22006KT 4SM -SN OVC020=



000
FTUS41 KRLX 111759
TAFPKB
TAF
KPKB 111759Z 1118/1218 29008KT P6SM BKN050
     FM120000 VRB02KT P6SM SCT080
     FM121000 00000KT P6SM BKN080
     FM121600 23005KT 5SM -SN OVC025=



000
FTUS41 KRLX 111759
TAFCRW
TAF
KCRW 111759Z 1118/1218 29007KT P6SM BKN040
     FM120000 VRB02KT P6SM SCT080
     FM121000 00000KT P6SM BKN080
     FM121600 24005KT 5SM -SN OVC025=



000
FTUS41 KRLX 111759
TAFCRW
TAF
KCRW 111759Z 1118/1218 29007KT P6SM BKN040
     FM120000 VRB02KT P6SM SCT080
     FM121000 00000KT P6SM BKN080
     FM121600 24005KT 5SM -SN OVC025=



000
FTUS41 KRLX 111759
TAFCKB
TAF
KCKB 111759Z 1118/1218 29007G15KT P6SM BKN040
     FM120100 VRB03KT P6SM SCT080
     FM121000 00000KT P6SM BKN080
     FM121700 24005KT 5SM -SN OVC025=



000
FTUS41 KRLX 111759
TAFPKB
TAF
KPKB 111759Z 1118/1218 29008KT P6SM BKN050
     FM120000 VRB02KT P6SM SCT080
     FM121000 00000KT P6SM BKN080
     FM121600 23005KT 5SM -SN OVC025=



000
FTUS41 KRLX 111759
TAFEKN
TAF
KEKN 111759Z 1118/1218 29012G18KT P6SM -SHSN OVC025
     FM112200 29008G15KT P6SM BKN035
     FM120200 28004KT P6SM BKN050
     FM120400 VRB02KT P6SM SCT080
     FM121100 VRB03KT P6SM BKN080
     FM121700 24005KT 5SM -SN OVC025=



000
FTUS41 KRLX 111759
TAFHTS
TAF
KHTS 111759Z 1118/1218 29007KT P6SM SCT045 SCT080
      TEMPO 1118/1121 BKN045
     FM112300 VRB02KT P6SM SCT080
     FM120800 00000KT P6SM BKN080
     FM121400 24005KT 5SM -SN OVC025=



000
FTUS41 KRLX 111759
TAFHTS
TAF
KHTS 111759Z 1118/1218 29007KT P6SM SCT045 SCT080
      TEMPO 1118/1121 BKN045
     FM112300 VRB02KT P6SM SCT080
     FM120800 00000KT P6SM BKN080
     FM121400 24005KT 5SM -SN OVC025=



000
FTUS41 KRLX 111759
TAFCKB
TAF
KCKB 111759Z 1118/1218 29007G15KT P6SM BKN040
     FM120100 VRB03KT P6SM SCT080
     FM121000 00000KT P6SM BKN080
     FM121700 24005KT 5SM -SN OVC025=



000
FTUS41 KRLX 111759
TAFEKN
TAF
KEKN 111759Z 1118/1218 29012G18KT P6SM -SHSN OVC025
     FM112200 29008G15KT P6SM BKN035
     FM120200 28004KT P6SM BKN050
     FM120400 VRB02KT P6SM SCT080
     FM121100 VRB03KT P6SM BKN080
     FM121700 24005KT 5SM -SN OVC025=



000
FTUS41 KRLX 111551 AAA
TAFCRW
TAF AMD
KCRW 111551Z 1116/1212 29007KT P6SM SCT035
      TEMPO 1116/1119 BKN035
     FM120100 00000KT P6SM SCT080
     FM120900 00000KT P6SM BKN080=



000
FTUS41 KRLX 111551 AAA
TAFPKB
TAF AMD
KPKB 111551Z 1116/1212 28007KT P6SM SCT035 SCT060
     FM111800 29006KT P6SM BKN060
     FM120300 25002KT P6SM SCT080
     FM120900 00000KT P6SM BKN080=



000
FTUS41 KRLX 111551 AAB
TAFEKN
TAF AMD
KEKN 111551Z 1116/1212 28012G18KT 6SM -SHSN SCT015 BKN020
      TEMPO 1116/1119 3SM -SHSN BKN015
     FM111900 28012G19KT P6SM -SHSN BKN025
     FM112200 29008KT P6SM SCT030 BKN060
     FM120200 28003KT P6SM SCT070
     FM121000 00000KT P6SM BKN080=



000
FTUS41 KRLX 111551 AAB
TAFBKW
TAF AMD
KBKW 111551Z 1116/1212 29010G15KT P6SM -SHSN SCT015 BKN025
      TEMPO 1116/1117 3SM -SHSN BR BKN015
     FM111800 30010G15KT P6SM SCT060
     FM120000 31006KT P6SM SCT080
     FM120600 VRB02KT P6SM BKN070=



000
FTUS41 KRLX 111551 AAA
TAFCKB
TAF AMD
KCKB 111551Z 1116/1212 28010KT P6SM SCT025 BKN060
      TEMPO 1116/1118 5SM -SHSN BKN025
     FM120400 27003KT P6SM SCT070
     FM121000 VRB03KT P6SM BKN080=



000
FTUS41 KRLX 111551 AAA
TAFHTS
TAF AMD
KHTS 111551Z 1116/1212 29005KT P6SM SCT040
      TEMPO 1116/1119 BKN040
     FM120000 25002KT P6SM SCT080
     FM120700 00000KT P6SM BKN080=



000
FTUS41 KRLX 111551 AAB
TAFBKW
TAF AMD
KBKW 111551Z 1116/1212 29010G15KT P6SM -SHSN SCT015 BKN025
      TEMPO 1116/1117 3SM -SHSN BR BKN015
     FM111800 30010G15KT P6SM SCT060
     FM120000 31006KT P6SM SCT080
     FM120600 VRB02KT P6SM BKN070=



000
FTUS41 KRLX 111551 AAB
TAFEKN
TAF AMD
KEKN 111551Z 1116/1212 28012G18KT 6SM -SHSN SCT015 BKN020
      TEMPO 1116/1119 3SM -SHSN BKN015
     FM111900 28012G19KT P6SM -SHSN BKN025
     FM112200 29008KT P6SM SCT030 BKN060
     FM120200 28003KT P6SM SCT070
     FM121000 00000KT P6SM BKN080=



000
FTUS41 KRLX 111551 AAA
TAFHTS
TAF AMD
KHTS 111551Z 1116/1212 29005KT P6SM SCT040
      TEMPO 1116/1119 BKN040
     FM120000 25002KT P6SM SCT080
     FM120700 00000KT P6SM BKN080=



000
FTUS41 KRLX 111551 AAA
TAFCKB
TAF AMD
KCKB 111551Z 1116/1212 28010KT P6SM SCT025 BKN060
      TEMPO 1116/1118 5SM -SHSN BKN025
     FM120400 27003KT P6SM SCT070
     FM121000 VRB03KT P6SM BKN080=



000
FTUS41 KRLX 111551 AAA
TAFPKB
TAF AMD
KPKB 111551Z 1116/1212 28007KT P6SM SCT035 SCT060
     FM111800 29006KT P6SM BKN060
     FM120300 25002KT P6SM SCT080
     FM120900 00000KT P6SM BKN080=



000
FTUS41 KRLX 111551 AAA
TAFCRW
TAF AMD
KCRW 111551Z 1116/1212 29007KT P6SM SCT035
      TEMPO 1116/1119 BKN035
     FM120100 00000KT P6SM SCT080
     FM120900 00000KT P6SM BKN080=



000
FTUS41 KRLX 111300 AAA
TAFEKN
TAF AMD
KEKN 111300Z 1113/1212 28012G18KT 5SM -SHSN OVC015
      TEMPO 1113/1115 2SM -SHSN BKN010
     FM111500 28012G19KT P6SM OVC020
     FM112200 29008KT P6SM SCT035
     FM120200 28006KT P6SM BKN250
     FM120900 00000KT P6SM BKN100=



000
FTUS41 KRLX 111300 AAA
TAFEKN
TAF AMD
KEKN 111300Z 1113/1212 28012G18KT 5SM -SHSN OVC015
      TEMPO 1113/1115 2SM -SHSN BKN010
     FM111500 28012G19KT P6SM OVC020
     FM112200 29008KT P6SM SCT035
     FM120200 28006KT P6SM BKN250
     FM120900 00000KT P6SM BKN100=



000
FTUS41 KRLX 111259 AAA
TAFBKW
TAF AMD
KBKW 111259Z 1113/1212 29010KT P6SM -SHSN OVC025
      TEMPO 1113/1115 3SM -SHSN BR BKN015
     FM111700 30010G15KT P6SM BKN035
     FM120000 31006KT P6SM SCT250
     FM120400 00000KT P6SM BKN200
     FM120600 00000KT P6SM BKN090=



000
FTUS41 KRLX 111259 AAA
TAFBKW
TAF AMD
KBKW 111259Z 1113/1212 29010KT P6SM -SHSN OVC025
      TEMPO 1113/1115 3SM -SHSN BR BKN015
     FM111700 30010G15KT P6SM BKN035
     FM120000 31006KT P6SM SCT250
     FM120400 00000KT P6SM BKN200
     FM120600 00000KT P6SM BKN090=



000
FTUS41 KRLX 111120
TAFEKN
TAF
KEKN 111120Z 1112/1212 28012G18KT 5SM -SHSN OVC015
     FM111500 28012G19KT P6SM OVC020
     FM112200 29008KT P6SM SCT035
     FM120200 28006KT P6SM BKN250
     FM120900 00000KT P6SM BKN100=



000
FTUS41 KRLX 111120
TAFCRW
TAF
KCRW 111120Z 1112/1212 27005KT P6SM -SN BKN030
     FM111300 27006KT P6SM BKN035
     FM111900 29007KT P6SM SCT035
     FM120200 00000KT P6SM BKN250
     FM120700 00000KT P6SM BKN110=



000
FTUS41 KRLX 111120
TAFBKW
TAF
KBKW 111120Z 1112/1212 29010G16KT P6SM BKN025
     FM111700 30010G15KT P6SM BKN035
     FM120000 31006KT P6SM SCT250
     FM120400 00000KT P6SM BKN200
     FM120600 00000KT P6SM BKN090=



000
FTUS41 KRLX 111120
TAFCKB
TAF
KCKB 111120Z 1112/1212 26009KT P6SM OVC025
     FM111800 28010G15KT P6SM BKN035
     FM112200 28008KT P6SM SCT035
     FM120200 27004KT P6SM FEW035
     FM121000 VRB03KT P6SM BKN120=



000
FTUS41 KRLX 111120
TAFHTS
TAF
KHTS 111120Z 1112/1212 27004KT P6SM BKN035
     FM111600 29005KT P6SM SCT045
     FM120100 00000KT P6SM BKN250
     FM120600 00000KT P6SM BKN110=



000
FTUS41 KRLX 111120
TAFPKB
TAF
KPKB 111120Z 1112/1212 27006KT P6SM BKN030
     FM111500 28007KT P6SM BKN035
     FM112000 29008KT P6SM SCT035
     FM120400 00000KT P6SM BKN250
     FM121000 00000KT P6SM BKN120=



000
FTUS41 KRLX 110900 AAA
TAFEKN
TAF AMD
KEKN 110900Z 1109/1206 25010G18KT 5SM -SN BKN022 BKN028 OVC040
     FM111200 28012G18KT 6SM -SHSN OVC015
     FM111800 29012G18KT P6SM OVC025
     FM120000 29008KT P6SM SCT035
     FM120200 28006KT P6SM BKN250=



000
FTUS41 KRLX 110900 AAA
TAFCRW
TAF AMD
KCRW 110900Z 1109/1206 27011G18KT 5SM -SN FEW025 SCT030 OVC045
     FM111200 27006KT P6SM BKN035
     FM111900 29007KT P6SM SCT035
     FM120200 00000KT P6SM BKN250=



000
FTUS41 KRLX 110900 AAA
TAFHTS
TAF AMD
KHTS 110900Z 1109/1206 34006KT P6SM FEW025 SCT030 OVC040
     FM111600 29005KT P6SM SCT045
     FM120100 00000KT P6SM BKN250=



000
FTUS41 KRLX 110900 AAA
TAFPKB
TAF AMD
KPKB 110900Z 1109/1206 27009G16KT P6SM OVC060
     FM111000 26007KT P6SM BKN035
     FM111200 27006KT P6SM BKN030
     FM111800 29008KT P6SM SCT035
     FM120400 00000KT P6SM BKN250=



000
FTUS41 KRLX 110900 AAA
TAFCKB
TAF AMD
KCKB 110900Z 1109/1206 26008KT 6SM -SN FEW022 OVC035
     FM111700 28010G15KT P6SM BKN035
     FM112200 28008KT P6SM SCT040=



000
FTUS41 KRLX 110900 AAA
TAFBKW
TAF AMD
KBKW 110900Z 1109/1206 29011G17KT 6SM -SN OVC030
     FM111000 30010G17KT 5SM -SN OVC028
     FM111700 30010G17KT P6SM BKN035
     FM111900 30010G15KT P6SM SCT040
     FM120100 31006KT P6SM BKN250=



000
FTUS41 KRLX 110539 CCA
TAFEKN
TAF COR
KEKN 110539Z 1106/1206 29013G17KT 3SM -SN BKN021 OVC027
     FM111200 28012G18KT 6SM -SHSN OVC015
     FM111800 29012G18KT P6SM OVC025
     FM120000 29008KT P6SM SCT035
     FM120200 28006KT P6SM BKN250=



000
FTUS41 KRLX 110539 CCA
TAFEKN
TAF COR
KEKN 110539Z 1106/1206 29013G17KT 3SM -SN BKN021 OVC027
     FM111200 28012G18KT 6SM -SHSN OVC015
     FM111800 29012G18KT P6SM OVC025
     FM120000 29008KT P6SM SCT035
     FM120200 28006KT P6SM BKN250=



000
FTUS41 KRLX 110538
TAFHTS
TAF
KHTS 110538Z 1106/1206 23006KT P6SM -SN OVC040
     FM111600 29005KT P6SM SCT045
     FM120100 00000KT P6SM BKN250=



000
FTUS41 KRLX 110538
TAFCRW
TAF
KCRW 110538Z 1106/1206 23007KT 4SM -SN SCT020 BKN027 OVC050
     FM110800 24008KT 6SM -SN BKN030 OVC050
     FM111200 27006KT P6SM BKN035
     FM111900 29007KT P6SM SCT035
     FM120200 00000KT P6SM BKN250=



000
FTUS41 KRLX 110538
TAFEKN
TAF
KEKN 110538Z 1106/1206 28012G17KT 2SM -SN BKN021 OVC040
     FM111000 28012G18KT 5SM -SHSN OVC015
     FM111800 29012G18KT P6SM OVC025
     FM120000 29008KT P6SM SCT035
     FM120200 28006KT P6SM BKN250=



000
FTUS41 KRLX 110538
TAFBKW
TAF
KBKW 110538Z 1106/1206 29009G17KT 2SM -SN BKN017 BKN024 OVC028
     FM111000 30010G17KT 5SM -SN OVC028
     FM111700 30010G17KT P6SM BKN035
     FM111900 30010G15KT P6SM SCT040
     FM120100 31006KT P6SM BKN250=



000
FTUS41 KRLX 110538
TAFPKB
TAF
KPKB 110538Z 1106/1206 26008KT P6SM BKN050
     FM111000 26007KT P6SM BKN035
     FM111200 27006KT P6SM BKN030
     FM111800 29008KT P6SM SCT035
     FM120400 00000KT P6SM BKN250=



000
FTUS41 KRLX 110538
TAFCKB
TAF
KCKB 110538Z 1106/1206 27012G21KT 5SM -SN SCT018 BKN030 OVC070
     FM110800 28010KT 5SM -SN OVC022
     FM110900 26009KT P6SM OVC025
     FM111700 28010G15KT P6SM BKN035
     FM112200 28008KT P6SM SCT040=



000
FTUS41 KRLX 110538
TAFPKB
TAF
KPKB 110538Z 1106/1206 26008KT P6SM BKN050
     FM111000 26007KT P6SM BKN035
     FM111200 27006KT P6SM BKN030
     FM111800 29008KT P6SM SCT035
     FM120400 00000KT P6SM BKN250=



000
FTUS41 KRLX 110538
TAFBKW
TAF
KBKW 110538Z 1106/1206 29009G17KT 2SM -SN BKN017 BKN024 OVC028
     FM111000 30010G17KT 5SM -SN OVC028
     FM111700 30010G17KT P6SM BKN035
     FM111900 30010G15KT P6SM SCT040
     FM120100 31006KT P6SM BKN250=



000
FTUS41 KRLX 110538
TAFCKB
TAF
KCKB 110538Z 1106/1206 27012G21KT 5SM -SN SCT018 BKN030 OVC070
     FM110800 28010KT 5SM -SN OVC022
     FM110900 26009KT P6SM OVC025
     FM111700 28010G15KT P6SM BKN035
     FM112200 28008KT P6SM SCT040=



000
FTUS41 KRLX 110538
TAFHTS
TAF
KHTS 110538Z 1106/1206 23006KT P6SM -SN OVC040
     FM111600 29005KT P6SM SCT045
     FM120100 00000KT P6SM BKN250=



000
FTUS41 KRLX 110538
TAFCRW
TAF
KCRW 110538Z 1106/1206 23007KT 4SM -SN SCT020 BKN027 OVC050
     FM110800 24008KT 6SM -SN BKN030 OVC050
     FM111200 27006KT P6SM BKN035
     FM111900 29007KT P6SM SCT035
     FM120200 00000KT P6SM BKN250=



000
FTUS41 KRLX 110538
TAFEKN
TAF
KEKN 110538Z 1106/1206 28012G17KT 2SM -SN BKN021 OVC040
     FM111000 28012G18KT 5SM -SHSN OVC015
     FM111800 29012G18KT P6SM OVC025
     FM120000 29008KT P6SM SCT035
     FM120200 28006KT P6SM BKN250=



000
FTUS41 KRLX 110305 AAA
TAFCRW
TAF AMD
KCRW 110305Z 1103/1124 27008G15KT P6SM BKN035
     FM111200 28006KT P6SM BKN050
     FM111800 29006KT P6SM SCT050=



000
FTUS41 KRLX 110305 AAA
TAFHTS
TAF AMD
KHTS 110305Z 1103/1124 28007KT P6SM BKN035
     FM111300 27004KT P6SM SCT040=



000
FTUS41 KRLX 110305 AAA
TAFBKW
TAF AMD
KBKW 110305Z 1103/1124 28012G18KT 3SM -SHSN BKN015 BKN020
     FM110500 29013G19KT 5SM -SHSN BKN025
     FM110800 30010G16KT P6SM BKN025
     FM112000 30010KT P6SM SCT030=



000
FTUS41 KRLX 110305 AAA
TAFEKN
TAF AMD
KEKN 110305Z 1103/1124 27011G17KT 3SM -SHSN OVC015
     FM111000 28012G19KT 4SM -SHSN BKN025
     FM111400 28012G18KT P6SM BKN025
     FM112300 29009KT P6SM BKN035=



000
FTUS41 KRLX 110305 AAB
TAFPKB
TAF AMD
KPKB 110305Z 1103/1124 26010G16KT P6SM BKN035
     FM110900 26008KT P6SM BKN050
     FM111900 29006KT P6SM SCT050=



000
FTUS41 KRLX 110305 AAA
TAFEKN
TAF AMD
KEKN 110305Z 1103/1124 27011G17KT 3SM -SHSN OVC015
     FM111000 28012G19KT 4SM -SHSN BKN025
     FM111400 28012G18KT P6SM BKN025
     FM112300 29009KT P6SM BKN035=



000
FTUS41 KRLX 110305 AAA
TAFCRW
TAF AMD
KCRW 110305Z 1103/1124 27008G15KT P6SM BKN035
     FM111200 28006KT P6SM BKN050
     FM111800 29006KT P6SM SCT050=



000
FTUS41 KRLX 110305 AAA
TAFBKW
TAF AMD
KBKW 110305Z 1103/1124 28012G18KT 3SM -SHSN BKN015 BKN020
     FM110500 29013G19KT 5SM -SHSN BKN025
     FM110800 30010G16KT P6SM BKN025
     FM112000 30010KT P6SM SCT030=



000
FTUS41 KRLX 110305 AAB
TAFPKB
TAF AMD
KPKB 110305Z 1103/1124 26010G16KT P6SM BKN035
     FM110900 26008KT P6SM BKN050
     FM111900 29006KT P6SM SCT050=



000
FTUS41 KRLX 110305 AAA
TAFHTS
TAF AMD
KHTS 110305Z 1103/1124 28007KT P6SM BKN035
     FM111300 27004KT P6SM SCT040=



000
FTUS41 KRLX 110253 AAA
TAFCKB
TAF AMD
KCKB 110253Z 1103/1124 26009KT 3SM -SHSN OVC020
      TEMPO 1103/1105 2SM -SHSN OVC012
     FM110600 26010G16KT P6SM OVC020
     FM111200 27009KT P6SM BKN025
     FM112000 28009KT P6SM BKN035
     FM112300 28007KT P6SM SCT040=



000
FTUS41 KRLX 110253 AAA
TAFCKB
TAF AMD
KCKB 110253Z 1103/1124 26009KT 3SM -SHSN OVC020
      TEMPO 1103/1105 2SM -SHSN OVC012
     FM110600 26010G16KT P6SM OVC020
     FM111200 27009KT P6SM BKN025
     FM112000 28009KT P6SM BKN035
     FM112300 28007KT P6SM SCT040=



000
FTUS41 KRLX 110131 AAA
TAFPKB
TAF AMD
KPKB 110131Z 1102/1124 26010G15KT 1SM -SHSN BKN015 OVC020
     FM110230 26008KT 4SM -SHSN BKN015 OVC020
     FM110400 26010KT P6SM BKN020
     FM110900 26008KT P6SM BKN035
     FM111900 29006KT P6SM SCT050=



000
FTUS41 KRLX 110131 AAA
TAFPKB
TAF AMD
KPKB 110131Z 1102/1124 26010G15KT 1SM -SHSN BKN015 OVC020
     FM110230 26008KT 4SM -SHSN BKN015 OVC020
     FM110400 26010KT P6SM BKN020
     FM110900 26008KT P6SM BKN035
     FM111900 29006KT P6SM SCT050=



000
FTUS41 KRLX 102320
TAFEKN
TAF
KEKN 102320Z 1100/1124 27011G17KT 3SM -SHSN OVC015
     FM111000 28012G19KT 4SM -SHSN BKN025
     FM111400 28012G18KT P6SM BKN025
     FM112300 29009KT P6SM BKN035=



000
FTUS41 KRLX 102320
TAFPKB
TAF
KPKB 102320Z 1100/1124 26010G15KT 4SM -SHSN BKN015 OVC020
     FM110300 26010KT P6SM BKN020
     FM110900 26008KT P6SM BKN035
     FM111900 29006KT P6SM SCT050=



000
FTUS41 KRLX 102320
TAFBKW
TAF
KBKW 102320Z 1100/1124 28012G18KT 3SM -SHSN BKN020
     FM110500 29013G19KT 5SM -SHSN BKN025
     FM110800 30010G16KT P6SM BKN025
     FM112000 30010KT P6SM SCT030=



000
FTUS41 KRLX 102320
TAFCRW
TAF
KCRW 102320Z 1100/1124 26010KT P6SM -SHSN BKN025
     FM110200 27009KT P6SM BKN030
     FM111200 28006KT P6SM BKN035
     FM111800 29006KT P6SM SCT040=



000
FTUS41 KRLX 102320
TAFHTS
TAF
KHTS 102320Z 1100/1124 26010KT P6SM -SHSN BKN035
     FM110200 28007KT P6SM BKN035
     FM111300 27004KT P6SM SCT040=



000
FTUS41 KRLX 102320
TAFCKB
TAF
KCKB 102320Z 1100/1124 26009KT 3SM -SHSN OVC020
     FM110600 26010G16KT P6SM OVC020
     FM111200 27009KT P6SM BKN025
     FM112000 28009KT P6SM BKN035
     FM112300 28007KT P6SM SCT040=



000
FTUS41 KRLX 102320
TAFEKN
TAF
KEKN 102320Z 1100/1124 27011G17KT 3SM -SHSN OVC015
     FM111000 28012G19KT 4SM -SHSN BKN025
     FM111400 28012G18KT P6SM BKN025
     FM112300 29009KT P6SM BKN035=



000
FTUS41 KRLX 102320
TAFCKB
TAF
KCKB 102320Z 1100/1124 26009KT 3SM -SHSN OVC020
     FM110600 26010G16KT P6SM OVC020
     FM111200 27009KT P6SM BKN025
     FM112000 28009KT P6SM BKN035
     FM112300 28007KT P6SM SCT040=



000
FTUS41 KRLX 102320
TAFPKB
TAF
KPKB 102320Z 1100/1124 26010G15KT 4SM -SHSN BKN015 OVC020
     FM110300 26010KT P6SM BKN020
     FM110900 26008KT P6SM BKN035
     FM111900 29006KT P6SM SCT050=



000
FTUS41 KRLX 102320
TAFBKW
TAF
KBKW 102320Z 1100/1124 28012G18KT 3SM -SHSN BKN020
     FM110500 29013G19KT 5SM -SHSN BKN025
     FM110800 30010G16KT P6SM BKN025
     FM112000 30010KT P6SM SCT030=



000
FTUS41 KRLX 102320
TAFHTS
TAF
KHTS 102320Z 1100/1124 26010KT P6SM -SHSN BKN035
     FM110200 28007KT P6SM BKN035
     FM111300 27004KT P6SM SCT040=



000
FTUS41 KRLX 102320
TAFCRW
TAF
KCRW 102320Z 1100/1124 26010KT P6SM -SHSN BKN025
     FM110200 27009KT P6SM BKN030
     FM111200 28006KT P6SM BKN035
     FM111800 29006KT P6SM SCT040=



000
FTUS41 KRLX 102138 AAA
TAFCRW
TAF AMD
KCRW 102138Z 1022/1118 26010G18KT 5SM -SHSN SCT015 BKN025 OVC080
     FM110100 26009KT P6SM -SHSN OVC025
     FM111000 26005KT P6SM OVC030
     FM111400 25006KT P6SM BKN035=



000
FTUS41 KRLX 101739
TAFBKW
TAF
KBKW 101739Z 1018/1118 26011G22KT 3SM -SHSN SCT015 OVC020
      TEMPO 1018/1022 3/4SM -SHSN BKN008 OVC015
     FM110300 26010G15KT 5SM -SHSN OVC020
     FM110900 26005KT P6SM -SHSN OVC025
     FM111300 26007KT P6SM OVC030=



000
FTUS41 KRLX 101739
TAFCRW
TAF
KCRW 101739Z 1018/1118 26010G18KT 5SM -SHSN SCT015 OVC025
      TEMPO 1018/1022 1 1/2SM -SHSN SCT008 OVC015
     FM110100 26009KT P6SM -SHSN OVC025
     FM111000 26005KT P6SM OVC030
     FM111400 25006KT P6SM BKN035=



000
FTUS41 KRLX 101739
TAFEKN
TAF
KEKN 101739Z 1018/1118 26010G20KT 3SM -SHSN SCT015 OVC020
      TEMPO 1018/1022 3/4SM -SHSN BKN008 OVC015
     FM110500 26010KT 5SM -SHSN OVC020
     FM111200 26005KT P6SM -SHSN OVC025
     FM111500 26007KT P6SM OVC030=



000
FTUS41 KRLX 101739
TAFCKB
TAF
KCKB 101739Z 1018/1118 26010G20KT 4SM -SHSN SCT015 OVC025
      TEMPO 1018/1022 1SM -SHSN SCT008 OVC012
     FM110300 26009KT 6SM -SHSN OVC025
     FM111000 26005KT P6SM -SHSN OVC030=



000
FTUS41 KRLX 101739
TAFHTS
TAF
KHTS 101739Z 1018/1118 26010G18KT P6SM -SHSN BKN025 OVC035
      TEMPO 1018/1020 5SM -SHSN BKN020
     FM110000 28009KT P6SM -SHSN SCT025 OVC035
     FM110600 26005KT P6SM BKN040
     FM111400 25005KT P6SM SCT045=



000
FTUS41 KRLX 101739
TAFPKB
TAF
KPKB 101739Z 1018/1118 26010G18KT 5SM -SHSN SCT015 OVC025
      TEMPO 1018/1022 1 1/2SM -SHSN SCT008 OVC015
     FM110100 26009KT P6SM -SHSN OVC025
     FM110500 26006KT P6SM -SHSN OVC030
     FM110800 25005KT P6SM OVC035
     FM111300 25005KT P6SM BKN040=



000
FTUS41 KRLX 101739
TAFHTS
TAF
KHTS 101739Z 1018/1118 26010G18KT P6SM -SHSN BKN025 OVC035
      TEMPO 1018/1020 5SM -SHSN BKN020
     FM110000 28009KT P6SM -SHSN SCT025 OVC035
     FM110600 26005KT P6SM BKN040
     FM111400 25005KT P6SM SCT045=



000
FTUS41 KRLX 101739
TAFCRW
TAF
KCRW 101739Z 1018/1118 26010G18KT 5SM -SHSN SCT015 OVC025
      TEMPO 1018/1022 1 1/2SM -SHSN SCT008 OVC015
     FM110100 26009KT P6SM -SHSN OVC025
     FM111000 26005KT P6SM OVC030
     FM111400 25006KT P6SM BKN035=



000
FTUS41 KRLX 101739
TAFEKN
TAF
KEKN 101739Z 1018/1118 26010G20KT 3SM -SHSN SCT015 OVC020
      TEMPO 1018/1022 3/4SM -SHSN BKN008 OVC015
     FM110500 26010KT 5SM -SHSN OVC020
     FM111200 26005KT P6SM -SHSN OVC025
     FM111500 26007KT P6SM OVC030=



000
FTUS41 KRLX 101739
TAFCKB
TAF
KCKB 101739Z 1018/1118 26010G20KT 4SM -SHSN SCT015 OVC025
      TEMPO 1018/1022 1SM -SHSN SCT008 OVC012
     FM110300 26009KT 6SM -SHSN OVC025
     FM111000 26005KT P6SM -SHSN OVC030=



000
FTUS41 KRLX 101739
TAFBKW
TAF
KBKW 101739Z 1018/1118 26011G22KT 3SM -SHSN SCT015 OVC020
      TEMPO 1018/1022 3/4SM -SHSN BKN008 OVC015
     FM110300 26010G15KT 5SM -SHSN OVC020
     FM110900 26005KT P6SM -SHSN OVC025
     FM111300 26007KT P6SM OVC030=



000
FTUS41 KRLX 101739
TAFPKB
TAF
KPKB 101739Z 1018/1118 26010G18KT 5SM -SHSN SCT015 OVC025
      TEMPO 1018/1022 1 1/2SM -SHSN SCT008 OVC015
     FM110100 26009KT P6SM -SHSN OVC025
     FM110500 26006KT P6SM -SHSN OVC030
     FM110800 25005KT P6SM OVC035
     FM111300 25005KT P6SM BKN040=



000
FTUS41 KRLX 101418 AAA
TAFHTS
TAF AMD
KHTS 101418Z 1014/1112 26009KT 5SM -SHSN OVC025
      TEMPO 1014/1018 2SM -SHSN OVC015
     FM102200 26009KT P6SM OVC035
     FM110200 26009KT P6SM BKN025
     FM110800 28009KT P6SM BKN035=



000
FTUS41 KRLX 101404 AAA
TAFEKN
TAF AMD
KEKN 101404Z 1014/1112 27009G18KT 2SM -SHSN SCT008 OVC015
      TEMPO 1014/1018 3/4SM -SHSN OVC008
     FM111000 28010G21KT 3SM -SHSN BKN015=



000
FTUS41 KRLX 101120
TAFPKB
TAF
KPKB 101120Z 1012/1112 25009KT P6SM OVC025
      TEMPO 1012/1016 3SM -SHSN OVC015
     FM101600 25009KT 5SM -SHSN OVC015
      TEMPO 1016/1020 1SM -SHSN OVC008
     FM102200 25010G19KT P6SM -SHSN OVC025
     FM110000 26010G20KT P6SM BKN035
     FM110200 26010G20KT P6SM BKN025
     FM110800 27009KT P6SM BKN012=



000
FTUS41 KRLX 101120
TAFCKB
TAF
KCKB 101120Z 1012/1112 25009G16KT 5SM -SHSN OVC015
      TEMPO 1016/1020 1SM -SHSN OVC008
     FM110200 26010G21KT P6SM OVC015=



000
FTUS41 KRLX 101120
TAFHTS
TAF
KHTS 101120Z 1012/1112 26009KT 3SM -SHSN OVC025
      TEMPO 1012/1016 1SM -SHSN OVC015
     FM101700 26009KT P6SM OVC035
     FM110200 26009KT P6SM BKN025
     FM110800 28009KT P6SM BKN035=



000
FTUS41 KRLX 101120
TAFEKN
TAF
KEKN 101120Z 1012/1112 27009G16KT 4SM -SHSN OVC015
     FM101700 27011G19KT 2SM -SHSN OVC015
      TEMPO 1017/1021 3/4SM -SHSN OVC008
     FM111000 28010G21KT 3SM -SHSN BKN015=



000
FTUS41 KRLX 101120
TAFBKW
TAF
KBKW 101120Z 1012/1112 28011G18KT 5SM -SHSN BR OVC025
      TEMPO 1012/1016 2SM -SHSN OVC012
     FM101700 28012G19KT 6SM -SHSN HZ OVC025
      TEMPO 1017/1021 1SM -SHSN OVC012
     FM110100 28012G22KT P6SM -SHSN BKN015=



000
FTUS41 KRLX 101120
TAFCRW
TAF
KCRW 101120Z 1012/1112 26010G18KT 6SM -SHSN OVC035
      TEMPO 1012/1016 3SM -SHSN SCT015 OVC025
     FM101600 26009KT P6SM -SHSN OVC035
      TEMPO 1016/1020 2SM -SHSN SCT015 OVC025
     FM102000 26009KT P6SM -SHSN OVC035
     FM102200 26009KT P6SM OVC035
     FM110300 26010G19KT P6SM BKN025
     FM111000 26007KT P6SM BKN035=



000
FTUS41 KRLX 101023 AAB
TAFCKB
TAF AMD
KCKB 101023Z 1010/1106 25009G16KT 4SM -SHSN OVC015
     FM101300 25009KT P6SM OVC025
     FM101700 25009KT 6SM -SHSN OVC025
     FM102100 25010G19KT 5SM -SHSN BKN025
     FM110000 25010G21KT 4SM -SHSN OVC015
     FM110200 26010G21KT P6SM OVC015=



000
FTUS41 KRLX 101023 AAB
TAFCKB
TAF AMD
KCKB 101023Z 1010/1106 25009G16KT 4SM -SHSN OVC015
     FM101300 25009KT P6SM OVC025
     FM101700 25009KT 6SM -SHSN OVC025
     FM102100 25010G19KT 5SM -SHSN BKN025
     FM110000 25010G21KT 4SM -SHSN OVC015
     FM110200 26010G21KT P6SM OVC015=



000
FTUS41 KRLX 101022 AAB
TAFHTS
TAF AMD
KHTS 101022Z 1010/1106 25009G16KT 6SM -SHSN OVC025
      TEMPO 1010/1014 1SM -SHSN OVC015
     FM101400 24008KT P6SM -SHSN BKN025 OVC035
     FM101700 26009KT P6SM OVC035
     FM110200 26009KT P6SM BKN025=



000
FTUS41 KRLX 100911 AAA
TAFHTS
TAF AMD
KHTS 100911Z 1009/1106 25009KT 5SM -SHSN OVC025
     FM101000 24008KT P6SM -SHSN BKN025 OVC035
     FM101700 26009KT P6SM OVC035
     FM110200 26009KT P6SM BKN025=



000
FTUS41 KRLX 100911 AAA
TAFBKW
TAF AMD
KBKW 100911Z 1009/1106 29010G18KT 5SM -SHSN OVC015
      TEMPO 1009/1013 2SM -SHSN OVC020
     FM102000 28013G20KT 3SM -SHSN BKN015=



000
FTUS41 KRLX 100911 AAA
TAFCKB
TAF AMD
KCKB 100911Z 1009/1106 25009KT 1 1/2SM -SHSN OVC015
      TEMPO 1009/1010 3SM -SHSN SCT015 OVC025
     FM101000 25009KT 4SM -SHSN OVC025
     FM101300 25009KT P6SM OVC025
     FM101700 25009KT 6SM -SHSN OVC025
     FM102100 25010G19KT 5SM -SHSN BKN025
     FM110000 25010G21KT 4SM -SHSN OVC015
     FM110200 26010G21KT P6SM OVC015=



000
FTUS41 KRLX 100911 AAA
TAFPKB
TAF AMD
KPKB 100911Z 1009/1106 27009KT P6SM OVC015
      TEMPO 1009/1013 SCT015 OVC035
     FM101400 25009KT P6SM OVC025
     FM101700 25009KT 5SM -SHSN HZ OVC025
     FM102200 25010G19KT P6SM -SHSN OVC035
     FM102300 26010G19KT P6SM BKN040
     FM110200 26010G20KT P6SM BKN025
     FM110400 26010G20KT P6SM BKN015=



000
FTUS41 KRLX 100911 AAA
TAFCRW
TAF AMD
KCRW 100911Z 1009/1106 26010G19KT 3SM -SHSN OVC015
      TEMPO 1009/1013 6SM -SHSN SCT015 OVC025
     FM101300 26009KT P6SM -SHSN OVC025
     FM101800 26009KT P6SM -SHSN OVC035
     FM110100 26009KT P6SM BKN025
     FM110300 26010G19KT P6SM BKN025=



000
FTUS41 KRLX 100911 AAA
TAFEKN
TAF AMD
KEKN 100911Z 1009/1106 27010G19KT 4SM -SHSN OVC020
      TEMPO 1009/1010 2SM -SHSN OVC012
     FM101000 25009KT 3SM -SHSN OVC015
     FM101700 27011G19KT 3SM -SHSN OVC025
     FM102000 27011G19KT 2SM -SHSN OVC015
     FM110300 28011G24KT 1SM -SHSN SCT001 OVC012=



000
FTUS41 KRLX 100542
TAFCRW
TAF
KCRW 100542Z 1006/1106 26009KT 3SM -SHSN SCT015 OVC025
      TEMPO 1006/1010 1SM -SHSN SCT008 OVC015
     FM101000 26009KT P6SM -SHSN OVC025
     FM101800 26009KT P6SM -SHSN OVC035
     FM110100 26009KT P6SM BKN025
     FM110300 26010G19KT P6SM BKN025=



000
FTUS41 KRLX 100542
TAFBKW
TAF
KBKW 100542Z 1006/1106 29010G18KT 4SM -SHSN OVC012
      TEMPO 1006/1010 2SM -SHSN OVC020
     FM102000 28013G20KT 3SM -SHSN BKN015=



000
FTUS41 KRLX 100542
TAFPKB
TAF
KPKB 100542Z 1006/1106 26009KT P6SM OVC015
     FM101400 25009KT P6SM OVC025
     FM101700 25009KT 5SM -SHSN HZ OVC025
     FM102200 25010G19KT P6SM -SHSN OVC035
     FM102300 26010G19KT P6SM BKN040
     FM110200 26010G20KT P6SM BKN025
     FM110400 26010G20KT P6SM BKN015=



000
FTUS41 KRLX 100542
TAFHTS
TAF
KHTS 100542Z 1006/1106 25009KT 5SM -SHSN OVC025
     FM101000 24008KT P6SM BKN025 OVC035
     FM101700 26009KT P6SM OVC035
     FM110200 26009KT P6SM BKN025=



000
FTUS41 KRLX 100542
TAFCKB
TAF
KCKB 100542Z 1006/1106 25009KT 1 1/2SM -SHSN OVC015
      TEMPO 1006/1010 3SM -SHSN SCT015 OVC025
     FM101000 25009KT 4SM -SHSN OVC025
     FM101300 25009KT P6SM OVC025
     FM101700 25009KT 6SM -SHSN OVC025
     FM102100 25010G19KT 5SM -SHSN BKN025
     FM110000 25010G21KT 4SM -SHSN OVC015
     FM110200 26010G21KT P6SM OVC015=



000
FTUS41 KRLX 100542
TAFEKN
TAF
KEKN 100542Z 1006/1106 25009KT 6SM -SHSN OVC020
      TEMPO 1006/1010 2SM -SHSN OVC012
     FM101000 25009KT 3SM -SHSN OVC015
     FM101700 27011G19KT 3SM -SHSN OVC025
     FM102000 27011G19KT 2SM -SHSN OVC015
     FM110300 28011G24KT 1SM -SHSN SCT001 OVC012=



000
FTUS41 KRLX 100542
TAFCRW
TAF
KCRW 100542Z 1006/1106 26009KT 3SM -SHSN SCT015 OVC025
      TEMPO 1006/1010 1SM -SHSN SCT008 OVC015
     FM101000 26009KT P6SM -SHSN OVC025
     FM101800 26009KT P6SM -SHSN OVC035
     FM110100 26009KT P6SM BKN025
     FM110300 26010G19KT P6SM BKN025=



000
FTUS41 KRLX 100542
TAFEKN
TAF
KEKN 100542Z 1006/1106 25009KT 6SM -SHSN OVC020
      TEMPO 1006/1010 2SM -SHSN OVC012
     FM101000 25009KT 3SM -SHSN OVC015
     FM101700 27011G19KT 3SM -SHSN OVC025
     FM102000 27011G19KT 2SM -SHSN OVC015
     FM110300 28011G24KT 1SM -SHSN SCT001 OVC012=



000
FTUS41 KRLX 100542
TAFBKW
TAF
KBKW 100542Z 1006/1106 29010G18KT 4SM -SHSN OVC012
      TEMPO 1006/1010 2SM -SHSN OVC020
     FM102000 28013G20KT 3SM -SHSN BKN015=



000
FTUS41 KRLX 100542
TAFHTS
TAF
KHTS 100542Z 1006/1106 25009KT 5SM -SHSN OVC025
     FM101000 24008KT P6SM BKN025 OVC035
     FM101700 26009KT P6SM OVC035
     FM110200 26009KT P6SM BKN025=



000
FTUS41 KRLX 100542
TAFPKB
TAF
KPKB 100542Z 1006/1106 26009KT P6SM OVC015
     FM101400 25009KT P6SM OVC025
     FM101700 25009KT 5SM -SHSN HZ OVC025
     FM102200 25010G19KT P6SM -SHSN OVC035
     FM102300 26010G19KT P6SM BKN040
     FM110200 26010G20KT P6SM BKN025
     FM110400 26010G20KT P6SM BKN015=



000
FTUS41 KRLX 100542
TAFCKB
TAF
KCKB 100542Z 1006/1106 25009KT 1 1/2SM -SHSN OVC015
      TEMPO 1006/1010 3SM -SHSN SCT015 OVC025
     FM101000 25009KT 4SM -SHSN OVC025
     FM101300 25009KT P6SM OVC025
     FM101700 25009KT 6SM -SHSN OVC025
     FM102100 25010G19KT 5SM -SHSN BKN025
     FM110000 25010G21KT 4SM -SHSN OVC015
     FM110200 26010G21KT P6SM OVC015=



000
FTUS41 KRLX 100304 AAA
TAFCKB
TAF AMD
KCKB 100304Z 1003/1024 24009G17KT 2SM -SHSN OVC015
     FM101700 25012G18KT 6SM -SHSN BKN020=



000
FTUS41 KRLX 100304 AAA
TAFBKW
TAF AMD
KBKW 100304Z 1003/1024 28012G19KT 2SM -SHSN SCT008 OVC020
     FM100400 28013G19KT 3SM -SHSN OVC008
     FM101400 27010G16KT 3SM -SHSN OVC010
     FM101700 27013G19KT 4SM -SHSN BKN015
     FM101900 27013G19KT 6SM -SHSN BKN020=



000
FTUS41 KRLX 100304 AAA
TAFCRW
TAF AMD
KCRW 100304Z 1003/1024 25009G16KT 2SM -SHSN OVC020
     FM101700 26012G18KT 4SM -SHSN BKN020
     FM102300 29008KT P6SM VCSH BKN025=



000
FTUS41 KRLX 100304 AAA
TAFPKB
TAF AMD
KPKB 100304Z 1003/1024 26009G15KT 3SM -SHSN OVC015
     FM101500 27008G13KT 4SM -SHSN OVC020
     FM102300 26011G17KT P6SM VCSH BKN025=



000
FTUS41 KRLX 100304 AAA
TAFHTS
TAF AMD
KHTS 100304Z 1003/1024 26009G15KT 4SM -SHSN OVC025
     FM101200 15010G16KT 2SM -SHSN OVC020
     FM101900 25011G16KT P6SM VCSH BKN025
     FM102300 29007KT P6SM BKN025=



000
FTUS41 KRLX 100304 AAA
TAFEKN
TAF AMD
KEKN 100304Z 1003/1024 27009G18KT 2SM -SHSN OVC015
     FM101900 26012G18KT 4SM -SHSN OVC025
     FM102300 29010G15KT 6SM -SHSN OVC025=



000
FTUS41 KRLX 100304 AAA
TAFCKB
TAF AMD
KCKB 100304Z 1003/1024 24009G17KT 2SM -SHSN OVC015
     FM101700 25012G18KT 6SM -SHSN BKN020=



000
FTUS41 KRLX 100304 AAA
TAFBKW
TAF AMD
KBKW 100304Z 1003/1024 28012G19KT 2SM -SHSN SCT008 OVC020
     FM100400 28013G19KT 3SM -SHSN OVC008
     FM101400 27010G16KT 3SM -SHSN OVC010
     FM101700 27013G19KT 4SM -SHSN BKN015
     FM101900 27013G19KT 6SM -SHSN BKN020=



000
FTUS41 KRLX 100304 AAA
TAFPKB
TAF AMD
KPKB 100304Z 1003/1024 26009G15KT 3SM -SHSN OVC015
     FM101500 27008G13KT 4SM -SHSN OVC020
     FM102300 26011G17KT P6SM VCSH BKN025=



000
FTUS41 KRLX 100304 AAA
TAFCRW
TAF AMD
KCRW 100304Z 1003/1024 25009G16KT 2SM -SHSN OVC020
     FM101700 26012G18KT 4SM -SHSN BKN020
     FM102300 29008KT P6SM VCSH BKN025=



000
FTUS41 KRLX 100304 AAA
TAFHTS
TAF AMD
KHTS 100304Z 1003/1024 26009G15KT 4SM -SHSN OVC025
     FM101200 15010G16KT 2SM -SHSN OVC020
     FM101900 25011G16KT P6SM VCSH BKN025
     FM102300 29007KT P6SM BKN025=



000
FTUS41 KRLX 100304 AAA
TAFEKN
TAF AMD
KEKN 100304Z 1003/1024 27009G18KT 2SM -SHSN OVC015
     FM101900 26012G18KT 4SM -SHSN OVC025
     FM102300 29010G15KT 6SM -SHSN OVC025=



000
FTUS41 KRLX 092341
TAFHTS
TAF
KHTS 092341Z 1000/1024 26009G16KT 5SM -SHSN OVC025
     FM100200 26009G15KT P6SM VCSH OVC015
     FM101900 25011G16KT P6SM VCSH BKN025
     FM102300 29007KT P6SM BKN025=



000
FTUS41 KRLX 092341
TAFCRW
TAF
KCRW 092341Z 1000/1024 25009G16KT 5SM -SHSN OVC020
      TEMPO 1000/1003 2SM -SHSN OVC009
     FM100900 25009G14KT 5SM -SHSN OVC020
     FM101700 26012G18KT 4SM -SHSN BKN020
     FM102300 29008KT P6SM VCSH BKN025=



000
FTUS41 KRLX 092341
TAFEKN
TAF
KEKN 092341Z 1000/1024 27009G18KT 4SM -SHSN SCT015 OVC025
     FM100900 27009G18KT 2SM -SHSN OVC015
     FM101900 26012G18KT 6SM -SHSN BKN015
     FM102300 29010G15KT 6SM -SHSN OVC010=



000
FTUS41 KRLX 092341
TAFBKW
TAF
KBKW 092341Z 1000/1024 28012G19KT 3SM -SHSN SCT008 OVC020
     FM100400 28013G19KT 3SM -SHSN OVC008
     FM101000 28012G17KT 2SM -SHSN OVC008
     FM101400 27010G16KT 3SM -SHSN OVC010
     FM101700 27013G19KT 4SM -SHSN BKN015
     FM101900 27013G19KT 6SM -SHSN BKN020=



000
FTUS41 KRLX 092341
TAFCKB
TAF
KCKB 092341Z 1000/1024 24009G17KT 2SM -SHSN OVC015
     FM100400 26009G16KT 4SM -SHSN OVC015
     FM100800 25009G15KT 5SM -SHSN OVC015
     FM101700 25012G18KT 6SM -SHSN BKN020=



000
FTUS41 KRLX 092341
TAFPKB
TAF
KPKB 092341Z 1000/1024 26009G17KT 5SM -SHSN OVC015
     FM100200 26009G15KT P6SM VCSH OVC015
     FM101400 27008G13KT 6SM -SHSN OVC020
     FM101900 25011G17KT 6SM -SHSN BKN025
     FM102200 26011G17KT P6SM VCSH BKN025=



000
FTUS41 KRLX 091757 RRA
TAFCRW
TAF
KCRW 091757Z 0918/1018 25007KT 4SM -SHSN SCT015 OVC025
      TEMPO 0918/0922 2SM -SHSN BR OVC010
     FM092200 27008KT 4SM -SHSN OVC020
     FM100600 26009KT 5SM -SHSN OVC015
     FM101500 26008G15KT 4SM -SHSN BKN020=



000
FTUS41 KRLX 091757 RRA
TAFCKB
TAF
KCKB 091757Z 0918/1018 24010G18KT 4SM -SHSN SCT010 OVC020
      TEMPO 0920/0924 2SM -SHSN BR BKN010
     FM100300 26009KT 3SM -SHSN OVC015
     FM100700 25009KT 5SM -SHSN OVC015
     FM101500 27009KT 5SM -SHSN OVC025=



000
FTUS41 KRLX 091757 RRA
TAFHTS
TAF
KHTS 091757Z 0918/1018 26009KT 5SM -SHSN BKN020 OVC030
      TEMPO 0918/0922 2SM -SHSN BR OVC015
     FM092300 26009KT 6SM -SHSN OVC025
     FM100100 27009KT P6SM OVC020
     FM101000 27008KT 5SM -SHSN OVC015
     FM101700 27008G16KT 6SM -SHSN BKN025=



000
FTUS41 KRLX 091757 RRA
TAFPKB
TAF
KPKB 091757Z 0918/1018 25009G18KT 4SM -SHSN OVC020
      TEMPO 0918/0922 2SM -SHSN BR OVC012
     FM092200 26010G15KT 5SM -SHSN OVC025
     FM100300 27009KT 5SM -SHSN OVC015
     FM101500 25010KT 6SM -SHSN BKN020=



000
FTUS41 KRLX 091757 RRA
TAFEKN
TAF
KEKN 091757Z 0918/1018 27009G15KT 4SM -SHSN SCT015 OVC025
      TEMPO 0920/0924 1SM -SHSN BR BKN015
     FM100100 27010G19KT 1SM -SHSN SCT001 OVC008
     FM100300 27010G19KT 2SM -SHSN OVC015
     FM100800 27009KT 3SM -SHSN OVC015
     FM101500 27011G18KT 4SM -SHSN OVC020=



000
FTUS41 KRLX 091757 RRA
TAFBKW
TAF
KBKW 091757Z 0918/1018 29009G16KT 3SM -SHSN SCT010 OVC020
      TEMPO 0920/0924 3/4SM -SHSN BR BKN010
     FM100000 28011G19KT 4SM -SHSN OVC010
     FM101500 28012G20KT 4SM -SHSN BKN015=



000
FTUS41 KRLX 091503 AAA
TAFCRW
TAF AMD
KCRW 091503Z 0915/1012 25007KT 4SM -SHSN SCT015 OVC025
      TEMPO 0915/0917 2SM -SHSN BR SCT007 OVC015
     FM091700 26009KT 2SM -SHSN BR SCT006 OVC010
     FM092100 27008KT 5SM -SHSN OVC015
     FM100600 26009KT P6SM OVC020=



000
FTUS41 KRLX 091503 AAA
TAFBKW
TAF AMD
KBKW 091503Z 0915/1012 28010G18KT 6SM -SHSN BR OVC015
      TEMPO 0915/0919 3SM -SHSN SCT008
     FM091900 28010G15KT 3SM -SHSN SCT008 OVC015
     FM100000 28011G19KT 2SM -SHSN OVC007=



000
FTUS41 KRLX 091503 AAA
TAFHTS
TAF AMD
KHTS 091503Z 0915/1012 26008KT P6SM -SHSN SCT015 BKN035
     FM091700 27009KT 3SM -SHSN BKN015
     FM092000 26009KT 6SM -SHSN OVC020
     FM100000 27009KT P6SM OVC025=



000
FTUS41 KRLX 091503 AAA
TAFCKB
TAF AMD
KCKB 091503Z 0915/1012 26009KT 2SM -SHSN SCT008 OVC012
      TEMPO 0915/0918 3/4SM -SHSN BKN008
     FM091800 24009KT 1SM -SHSN SCT004 OVC007
     FM092200 24009KT 2SM -SHSN SCT007 OVC012
     FM100300 26009KT 3SM -SHSN OVC015
     FM100700 25009KT P6SM OVC015
     FM101100 27009KT P6SM OVC025=



000
FTUS41 KRLX 091503 AAA
TAFPKB
TAF AMD
KPKB 091503Z 0915/1012 25009KT 3SM -SHSN BKN012 OVC020
      TEMPO 0915/0918 1SM -SHSN BR OVC012
     FM091900 26009KT 5SM -SHSN BKN015 OVC025
     FM092200 26010G15KT P6SM -SHSN OVC025
     FM100000 27009KT P6SM OVC025=



000
FTUS41 KRLX 091503 AAA
TAFEKN
TAF AMD
KEKN 091503Z 0915/1012 27009G15KT 2SM -SHSN BR SCT008 OVC015
      TEMPO 0915/0919 3/4SM -SHSN BR BKN008
     FM091900 27010G20KT 1/2SM FZFG SCT001 OVC007
     FM100100 27010G19KT 1SM -SHSN SCT001 OVC008
     FM100300 27010G19KT 2SM -SHSN OVC010
     FM100500 28010G18KT 3SM -SHSN OVC015
     FM100800 27009KT 3SM -SHSN OVC015=



000
FTUS41 KRLX 091503 AAA
TAFCRW
TAF AMD
KCRW 091503Z 0915/1012 25007KT 4SM -SHSN SCT015 OVC025
      TEMPO 0915/0917 2SM -SHSN BR SCT007 OVC015
     FM091700 26009KT 2SM -SHSN BR SCT006 OVC010
     FM092100 27008KT 5SM -SHSN OVC015
     FM100600 26009KT P6SM OVC020=



000
FTUS41 KRLX 091503 AAA
TAFBKW
TAF AMD
KBKW 091503Z 0915/1012 28010G18KT 6SM -SHSN BR OVC015
      TEMPO 0915/0919 3SM -SHSN SCT008
     FM091900 28010G15KT 3SM -SHSN SCT008 OVC015
     FM100000 28011G19KT 2SM -SHSN OVC007=



000
FTUS41 KRLX 091503 AAA
TAFCKB
TAF AMD
KCKB 091503Z 0915/1012 26009KT 2SM -SHSN SCT008 OVC012
      TEMPO 0915/0918 3/4SM -SHSN BKN008
     FM091800 24009KT 1SM -SHSN SCT004 OVC007
     FM092200 24009KT 2SM -SHSN SCT007 OVC012
     FM100300 26009KT 3SM -SHSN OVC015
     FM100700 25009KT P6SM OVC015
     FM101100 27009KT P6SM OVC025=



000
FTUS41 KRLX 091503 AAA
TAFPKB
TAF AMD
KPKB 091503Z 0915/1012 25009KT 3SM -SHSN BKN012 OVC020
      TEMPO 0915/0918 1SM -SHSN BR OVC012
     FM091900 26009KT 5SM -SHSN BKN015 OVC025
     FM092200 26010G15KT P6SM -SHSN OVC025
     FM100000 27009KT P6SM OVC025=



000
FTUS41 KRLX 091503 AAA
TAFEKN
TAF AMD
KEKN 091503Z 0915/1012 27009G15KT 2SM -SHSN BR SCT008 OVC015
      TEMPO 0915/0919 3/4SM -SHSN BR BKN008
     FM091900 27010G20KT 1/2SM FZFG SCT001 OVC007
     FM100100 27010G19KT 1SM -SHSN SCT001 OVC008
     FM100300 27010G19KT 2SM -SHSN OVC010
     FM100500 28010G18KT 3SM -SHSN OVC015
     FM100800 27009KT 3SM -SHSN OVC015=



000
FTUS41 KRLX 091503 AAA
TAFHTS
TAF AMD
KHTS 091503Z 0915/1012 26008KT P6SM -SHSN SCT015 BKN035
     FM091700 27009KT 3SM -SHSN BKN015
     FM092000 26009KT 6SM -SHSN OVC020
     FM100000 27009KT P6SM OVC025=



000
FTUS41 KRLX 091120
TAFBKW
TAF
KBKW 091120Z 0912/1012 28010G18KT 4SM -SHSN BR BKN008 OVC015
      TEMPO 0912/0916 6SM -SHSN BKN015
     FM091600 28010G15KT P6SM -SHSN OVC025
     FM092200 28011G19KT 4SM -SHSN OVC015=



000
FTUS41 KRLX 091120
TAFHTS
TAF
KHTS 091120Z 0912/1012 27009KT P6SM -SHSN SCT015 BKN035
     FM091700 25009KT P6SM OVC035
     FM092100 25009KT P6SM OVC025=



000
FTUS41 KRLX 091120
TAFPKB
TAF
KPKB 091120Z 0912/1012 23010G19KT 1/2SM SHSN FZFG OVC007
      TEMPO 0912/0914 2SM -SHSN OVC012
     FM091400 23009KT 3SM -SHSN OVC015
     FM091800 24009KT 5SM -SHSN OVC025
     FM092200 24010G19KT 6SM -SHSN OVC025
     FM100000 26009KT P6SM -SHSN OVC015
     FM100800 27009KT P6SM OVC025=



000
FTUS41 KRLX 091120
TAFCRW
TAF
KCRW 091120Z 0912/1012 25009KT 2SM -SHSN BR OVC010
      TEMPO 0912/0914 4SM -SHSN BR SCT015 OVC025
     FM091400 25009KT P6SM OVC025
     FM100000 25009KT P6SM OVC015
     FM101000 25009KT P6SM OVC025=



000
FTUS41 KRLX 091120
TAFCKB
TAF
KCKB 091120Z 0912/1012 24009KT 3/4SM -SHSN BR SCT001 BKN004 OVC008
      TEMPO 0912/0916 2SM -SHSN BKN008 OVC012
     FM091600 24009KT 1SM -SHSN SCT001 OVC010
     FM092200 24009KT 1 1/2SM -SHSN OVC015
     FM100300 26009KT 3SM -SHSN OVC015
     FM100700 25009KT P6SM OVC015
     FM101100 27009KT P6SM OVC025=



000
FTUS41 KRLX 091120
TAFBKW
TAF
KBKW 091120Z 0912/1012 28010G18KT 4SM -SHSN BR BKN008 OVC015
      TEMPO 0912/0916 6SM -SHSN BKN015
     FM091600 28010G15KT P6SM -SHSN OVC025
     FM092200 28011G19KT 4SM -SHSN OVC015=



000
FTUS41 KRLX 091120
TAFHTS
TAF
KHTS 091120Z 0912/1012 27009KT P6SM -SHSN SCT015 BKN035
     FM091700 25009KT P6SM OVC035
     FM092100 25009KT P6SM OVC025=



000
FTUS41 KRLX 091120
TAFCRW
TAF
KCRW 091120Z 0912/1012 25009KT 2SM -SHSN BR OVC010
      TEMPO 0912/0914 4SM -SHSN BR SCT015 OVC025
     FM091400 25009KT P6SM OVC025
     FM100000 25009KT P6SM OVC015
     FM101000 25009KT P6SM OVC025=



000
FTUS41 KRLX 091120
TAFEKN
TAF
KEKN 091120Z 0912/1012 26009KT 1/2SM FG SCT001 OVC008
      TEMPO 0912/0916 2SM -SHSN OVC015
     FM091600 27009KT 3/4SM -SHSN HZ SCT001 OVC008
     FM092300 27010G20KT 1/2SM FZFG SCT001 OVC008
     FM100100 27010G19KT 3/4SM -SHSN SCT001 OVC008
     FM100300 27010G19KT 1 1/2SM -SHSN OVC010
     FM100500 28010G18KT 3SM -SHSN OVC015
     FM100800 27009KT 3SM -SHSN OVC015=



000
FTUS41 KRLX 091120
TAFCKB
TAF
KCKB 091120Z 0912/1012 24009KT 3/4SM -SHSN BR SCT001 BKN004 OVC008
      TEMPO 0912/0916 2SM -SHSN BKN008 OVC012
     FM091600 24009KT 1SM -SHSN SCT001 OVC010
     FM092200 24009KT 1 1/2SM -SHSN OVC015
     FM100300 26009KT 3SM -SHSN OVC015
     FM100700 25009KT P6SM OVC015
     FM101100 27009KT P6SM OVC025=



000
FTUS41 KRLX 091120
TAFPKB
TAF
KPKB 091120Z 0912/1012 23010G19KT 1/2SM SHSN FZFG OVC007
      TEMPO 0912/0914 2SM -SHSN OVC012
     FM091400 23009KT 3SM -SHSN OVC015
     FM091800 24009KT 5SM -SHSN OVC025
     FM092200 24010G19KT 6SM -SHSN OVC025
     FM100000 26009KT P6SM -SHSN OVC015
     FM100800 27009KT P6SM OVC025=



000
FTUS41 KRLX 091120
TAFEKN
TAF
KEKN 091120Z 0912/1012 26009KT 1/2SM FG SCT001 OVC008
      TEMPO 0912/0916 2SM -SHSN OVC015
     FM091600 27009KT 3/4SM -SHSN HZ SCT001 OVC008
     FM092300 27010G20KT 1/2SM FZFG SCT001 OVC008
     FM100100 27010G19KT 3/4SM -SHSN SCT001 OVC008
     FM100300 27010G19KT 1 1/2SM -SHSN OVC010
     FM100500 28010G18KT 3SM -SHSN OVC015
     FM100800 27009KT 3SM -SHSN OVC015=



000
FTUS41 KRLX 091028 AAB
TAFEKN
TAF AMD
KEKN 091028Z 0910/1006 22005KT 2SM -SHSN OVC015
      TEMPO 0910/0913 1/2SM SHSN FZFG SCT001 OVC008
     FM091300 25007KT 1/2SM SN FZFG SCT001 OVC005
     FM091500 27011G18KT 3/4SM -SHSN SCT001 OVC012
     FM092300 27012G21KT 1/2SM SHSN FZFG SCT001 OVC005
     FM100100 27009KT 3/4SM -SHSN SCT001 OVC008
     FM100500 27010G15KT 3SM -SHSN OVC015=



000
FTUS41 KRLX 091028 AAB
TAFEKN
TAF AMD
KEKN 091028Z 0910/1006 22005KT 2SM -SHSN OVC015
      TEMPO 0910/0913 1/2SM SHSN FZFG SCT001 OVC008
     FM091300 25007KT 1/2SM SN FZFG SCT001 OVC005
     FM091500 27011G18KT 3/4SM -SHSN SCT001 OVC012
     FM092300 27012G21KT 1/2SM SHSN FZFG SCT001 OVC005
     FM100100 27009KT 3/4SM -SHSN SCT001 OVC008
     FM100500 27010G15KT 3SM -SHSN OVC015=



000
FTUS41 KRLX 090907 AAA
TAFCRW
TAF AMD
KCRW 090907Z 0909/1006 27010G17KT 1SM -SHSN SCT006 OVC012
      TEMPO 0909/0912 4SM -SHSN
     FM091200 25007KT 4SM -SHSN OVC015
     FM091400 25010G19KT P6SM OVC025
     FM100000 26009KT P6SM OVC015=



000
FTUS41 KRLX 090907 AAA
TAFHTS
TAF AMD
KHTS 090907Z 0909/1006 27008KT P6SM -SHSN SCT015 OVC040
     FM091700 26010G17KT P6SM OVC035
     FM092100 26010G15KT P6SM OVC025=



000
FTUS41 KRLX 090907 AAA
TAFPKB
TAF AMD
KPKB 090907Z 0909/1006 23010G17KT 1/2SM SHSN FZFG OVC004
      TEMPO 0910/0914 2SM -SHSN OVC010
     FM091400 24010G17KT 3SM -SHSN OVC015
     FM091800 26010G20KT 5SM -SHSN OVC025
     FM100000 26008KT P6SM -SHSN OVC015
     FM100100 26008KT P6SM OVC015=



000
FTUS41 KRLX 090907 AAA
TAFCKB
TAF AMD
KCKB 090907Z 0909/1006 22007KT 1 1/2SM -SHSN OVC006
      TEMPO 0909/0913 3/4SM -SHSN OVC004
     FM091700 23010G17KT 1SM -SHSN SCT001 OVC008
     FM100000 26008KT 3/4SM -SHSN SCT001 OVC005
     FM100300 26009KT 3SM -SHSN OVC015
     FM100400 26009KT 4SM -SHSN OVC015=



000
FTUS41 KRLX 090907 AAA
TAFBKW
TAF AMD
KBKW 090907Z 0909/1006 27006KT 5SM -SHSN SCT012 OVC040
      TEMPO 0909/0911 2SM -SHSN BKN012
     FM091100 26010G17KT 1 1/2SM -SHSN OVC008
     FM091400 28011G19KT 4SM -SHSN OVC015
     FM091700 28012G20KT P6SM -SHSN OVC025
     FM100000 28009KT 3SM -SHSN OVC015=



000
FTUS41 KRLX 090907 AAA
TAFEKN
TAF AMD
KEKN 090907Z 0909/1006 25005KT 1 1/2SM -SHSN OVC015
     FM091000 VRB03KT 3/4SM -SHSN SCT001 OVC008
     FM091100 VRB03KT 1/2SM SN FZFG SCT001 OVC005
     FM091300 25007KT 1/2SM SN FZFG SCT001 OVC005
     FM091500 27011G18KT 3/4SM -SHSN SCT001 OVC012
     FM092300 27012G21KT 1/2SM SHSN FZFG SCT001 OVC005
     FM100100 27009KT 3/4SM -SHSN SCT001 OVC008
     FM100500 27010G15KT 3SM -SHSN OVC015=



000
FTUS41 KRLX 090557
TAFBKW
TAF
KBKW 090557Z 0906/1006 30007KT P6SM SCT025 OVC050
      TEMPO 0906/0908 5SM -SHSN SCT015 OVC025
     FM090800 27006KT 5SM -SHSN OVC015
     FM091100 26007KT 1 1/2SM -SHSN OVC008
     FM091400 28011G19KT 4SM -SHSN OVC015
     FM091700 28012G20KT P6SM -SHSN OVC025
     FM100000 28009KT 3SM -SHSN OVC015=



000
FTUS41 KRLX 090557
TAFCKB
TAF
KCKB 090557Z 0906/1006 20004KT 1SM -SHSN OVC005
      TEMPO 0906/0910 3SM -SHSN OVC010
     FM091000 22007KT 1 1/2SM -SHSN OVC006
     FM091700 23010G17KT 1SM -SHSN SCT001 OVC008
     FM100000 26008KT 3/4SM -SHSN SCT001 OVC005
     FM100300 26009KT 3SM -SHSN OVC015
     FM100400 26009KT 4SM -SHSN OVC015=



000
FTUS41 KRLX 090557
TAFCRW
TAF
KCRW 090557Z 0906/1006 26007KT P6SM OVC015
      TEMPO 0907/0909 4SM -SHSN BKN008
     FM090900 25007KT P6SM -SHSN OVC015
     FM091400 25010G19KT P6SM OVC025
     FM100000 26009KT P6SM OVC015=



000
FTUS41 KRLX 090557
TAFHTS
TAF
KHTS 090557Z 0906/1006 27012G20KT P6SM -SHSN OVC015
     FM090800 27008KT P6SM OVC025
     FM091700 26010G17KT P6SM OVC035
     FM092100 26010G15KT P6SM OVC025=



000
FTUS41 KRLX 090557
TAFPKB
TAF
KPKB 090557Z 0906/1006 23007KT 1 1/2SM -SHSN BR OVC004
      TEMPO 0907/0911 4SM -SHSN OVC010
     FM091100 23010G17KT 1 1/2SM -SHSN OVC015
     FM091400 24010G17KT 3SM -SHSN OVC015
     FM091800 26010G20KT 5SM -SHSN OVC025
     FM100000 26008KT P6SM -SHSN OVC015
     FM100100 26008KT P6SM OVC015=



000
FTUS41 KRLX 090557
TAFEKN
TAF
KEKN 090557Z 0906/1006 25005KT 1 1/2SM -SHSN OVC015
      TEMPO 0906/0909 3SM -SHSN OVC008
     FM090900 VRB03KT 3/4SM -SHSN SCT001 OVC008
     FM091100 VRB03KT 1/2SM SN FZFG SCT001 OVC005
     FM091300 25007KT 1/2SM SN FZFG SCT001 OVC005
     FM091500 27011G18KT 3/4SM -SHSN SCT001 OVC012
     FM092300 27012G21KT 1/2SM SHSN FZFG SCT001 OVC005
     FM100100 27009KT 3/4SM -SHSN SCT001 OVC008
     FM100500 27010G15KT 3SM -SHSN OVC015=



000
FTUS41 KRLX 090201 AAA
TAFPKB
TAF AMD
KPKB 090201Z 0902/0924 25007KT 3SM -SN OVC025
      TEMPO 0902/0903 1SM -SN BKN003 OVC020
     FM090300 22007KT 2SM -SN BR OVC015
     FM090400 23007KT 3SM -SHSN OVC025
     FM090800 22010G18KT 1SM -SN BR BKN008 OVC015
     FM091500 25010G17KT 2SM -SN BKN008 OVC015
     FM092200 26009KT 3SM -SHSN OVC020=



000
FTUS41 KRLX 082346 CCB
TAFCRW
TAF COR
KCRW 082346Z 0900/0924 24007KT 5SM -SN OVC030
     FM090100 24007KT 5SM -SHSN BR OVC030
      TEMPO 0901/0905 2SM -SHSN OVC020
     FM090500 26010G18KT 1SM -SN BR OVC015
     FM091300 25009KT 3SM -SHSN OVC025
     FM091600 25010G19KT 3SM -SHSN OVC025=



000
FTUS41 KRLX 082346 CCB
TAFCRW
TAF COR
KCRW 082346Z 0900/0924 24007KT 5SM -SN OVC030
     FM090100 24007KT 5SM -SHSN BR OVC030
      TEMPO 0901/0905 2SM -SHSN OVC020
     FM090500 26010G18KT 1SM -SN BR OVC015
     FM091300 25009KT 3SM -SHSN OVC025
     FM091600 25010G19KT 3SM -SHSN OVC025=



000
FTUS41 KRLX 082333 CCA
TAFCRW
TAF COR
KCRW 082333Z 0900/0924 24007KT 3SM -SN OVC030
      TEMPO 0900/0901 2SM -SHSN OVC008
     FM090100 24007KT 5SM -SHSN BR OVC030
      TEMPO 0901/0905 2SM -SHSN OVC020
     FM090500 26010G18KT 1SM -SN BR OVC015
     FM091300 25009KT 3SM -SHSN OVC025
     FM091600 25010G19KT 3SM -SHSN OVC025=



000
FTUS41 KRLX 082333 CCA
TAFCRW
TAF COR
KCRW 082333Z 0900/0924 24007KT 3SM -SN OVC030
      TEMPO 0900/0901 2SM -SHSN OVC008
     FM090100 24007KT 5SM -SHSN BR OVC030
      TEMPO 0901/0905 2SM -SHSN OVC020
     FM090500 26010G18KT 1SM -SN BR OVC015
     FM091300 25009KT 3SM -SHSN OVC025
     FM091600 25010G19KT 3SM -SHSN OVC025=



000
FTUS41 KRLX 082332
TAFBKW
TAF
KBKW 082332Z 0900/0924 27009KT 5SM BR OVC012
     FM090200 26010G20KT 2SM -SHSN OVC010
     FM090400 27010KT 3SM -SHSN OVC015
     FM090900 27010G20KT 2SM -SHSN OVC008=



000
FTUS41 KRLX 082332
TAFPKB
TAF
KPKB 082332Z 0900/0924 25007KT P6SM -RASN OVC025
      TEMPO 0900/0902 2SM -SN OVC020
     FM090200 22007KT 2SM -SHSN BR OVC015
     FM090500 23007KT 3SM -SHSN OVC025
     FM090800 22010G18KT 1SM -SN BR BKN008 OVC015
     FM091500 25010G17KT 2SM -SN BKN008 OVC015
     FM092200 26009KT 3SM -SHSN OVC020=



000
FTUS41 KRLX 082332
TAFHTS
TAF
KHTS 082332Z 0900/0924 25006KT 6SM -SHSN OVC035
      TEMPO 0900/0904 2SM -SHSN OVC020
     FM090400 27010G18KT 2SM -SHSN BR OVC015
     FM091000 26008KT 3SM -SHSN OVC025
     FM091800 26010G17KT 3SM -SHSN OVC030=



000
FTUS41 KRLX 082332
TAFEKN
TAF
KEKN 082332Z 0900/0924 27008KT 6SM -SHSN BR OVC025
      TEMPO 0901/0903 26010G22KT 2SM -SN OVC015
     FM090400 27007KT 3SM -SHSN OVC015
     FM090800 28008KT 2SM -SHSN BR OVC015
     FM091400 25010G20KT 1SM -SHSN BR OVC015=



000
FTUS41 KRLX 082332
TAFCKB
TAF
KCKB 082332Z 0900/0924 27007KT P6SM OVC015
      TEMPO 0901/0903 26010G22KT 2SM -SN OVC015
     FM090400 23005KT 2SM -SHSN BR OVC015
     FM090800 22010G20KT 1SM -SN BR OVC008
     FM091400 23009KT 2SM -SN BR OVC015
     FM091600 25010G20KT 2SM -SHSN OVC015=



000
FTUS41 KRLX 082332
TAFCRW
TAF
KCRW 082332Z 0900/0924 24007KT 5SM -SN OVC030
     FM090100 24007KT 5SM -SHSN BR OVC030
      TEMPO 0901/0905 2SM -SHSN OVC020
     FM090500 26010G18KT 1SM -SN BR OVC015
     FM091300 25009KT 3SM -SHSN OVC025
     FM091600 25010G19KT 3SM -SHSN OVC025=



000
FTUS41 KRLX 082332
TAFCKB
TAF
KCKB 082332Z 0900/0924 27007KT P6SM OVC015
      TEMPO 0901/0903 26010G22KT 2SM -SN OVC015
     FM090400 23005KT 2SM -SHSN BR OVC015
     FM090800 22010G20KT 1SM -SN BR OVC008
     FM091400 23009KT 2SM -SN BR OVC015
     FM091600 25010G20KT 2SM -SHSN OVC015=



000
FTUS41 KRLX 082332
TAFEKN
TAF
KEKN 082332Z 0900/0924 27008KT 6SM -SHSN BR OVC025
      TEMPO 0901/0903 26010G22KT 2SM -SN OVC015
     FM090400 27007KT 3SM -SHSN OVC015
     FM090800 28008KT 2SM -SHSN BR OVC015
     FM091400 25010G20KT 1SM -SHSN BR OVC015=



000
FTUS41 KRLX 082332
TAFBKW
TAF
KBKW 082332Z 0900/0924 27009KT 5SM BR OVC012
     FM090200 26010G20KT 2SM -SHSN OVC010
     FM090400 27010KT 3SM -SHSN OVC015
     FM090900 27010G20KT 2SM -SHSN OVC008=



000
FTUS41 KRLX 082332
TAFPKB
TAF
KPKB 082332Z 0900/0924 25007KT P6SM -RASN OVC025
      TEMPO 0900/0902 2SM -SN OVC020
     FM090200 22007KT 2SM -SHSN BR OVC015
     FM090500 23007KT 3SM -SHSN OVC025
     FM090800 22010G18KT 1SM -SN BR BKN008 OVC015
     FM091500 25010G17KT 2SM -SN BKN008 OVC015
     FM092200 26009KT 3SM -SHSN OVC020=



000
FTUS41 KRLX 082332
TAFCRW
TAF
KCRW 082332Z 0900/0924 24007KT 5SM -SN OVC030
     FM090100 24007KT 5SM -SHSN BR OVC030
      TEMPO 0901/0905 2SM -SHSN OVC020
     FM090500 26010G18KT 1SM -SN BR OVC015
     FM091300 25009KT 3SM -SHSN OVC025
     FM091600 25010G19KT 3SM -SHSN OVC025=



000
FTUS41 KRLX 082332
TAFHTS
TAF
KHTS 082332Z 0900/0924 25006KT 6SM -SHSN OVC035
      TEMPO 0900/0904 2SM -SHSN OVC020
     FM090400 27010G18KT 2SM -SHSN BR OVC015
     FM091000 26008KT 3SM -SHSN OVC025
     FM091800 26010G17KT 3SM -SHSN OVC030=



000
FTUS41 KRLX 082134 CCA
TAFCRW
TAF COR
KCRW 082134Z 0821/0918 23006G12KT P6SM SCT020 BKN080
     FM082145 24015G35KT 1SM -SN OVC015
     FM082215 24010G18KT 5SM -RASN OVC020
     FM082245 24008KT P6SM BKN040
     FM090300 25008KT 4SM -SHRASN BR OVC008
     FM090600 26009KT 2SM -SHSN BR OVC006
     FM091400 27010KT 4SM -SHSN BR OVC012=



000
FTUS41 KRLX 082116 AAA
TAFBKW
TAF AMD
KBKW 082116Z 0821/0918 22010G18KT P6SM BKN050
      TEMPO 0821/0823 2SM -SNGR OVC010
     FM082300 26007KT P6SM BKN025
     FM090500 25008KT 4SM -SHSN BR OVC008
     FM090700 26009KT 1SM -SHSN BR OVC004
     FM091600 28010KT 2SM -SHSN BR OVC007=



000
FTUS41 KRLX 082114 AAB
TAFCRW
TAF AMD
KCRW 082114Z 0821/0918 23006G12KT P6SM SCT020 BKN080
     FM082135 24010G25KT 2SM -RASNGR OVC015
     FM082215 24010G18KT 5SM -RAGR OVC020
     FM082245 24008KT P6SM BKN040
     FM090300 25008KT 4SM -SHRASN BR OVC008
     FM090600 26009KT 2SM -SHSN BR OVC006
     FM091400 27010KT 4SM -SHSN BR OVC012=



000
FTUS41 KRLX 082114 AAB
TAFCRW
TAF AMD
KCRW 082114Z 0821/0918 23006G12KT P6SM SCT020 BKN080
     FM082135 24010G25KT 2SM -RASNGR OVC015
     FM082215 24010G18KT 5SM -RAGR OVC020
     FM082245 24008KT P6SM BKN040
     FM090300 25008KT 4SM -SHRASN BR OVC008
     FM090600 26009KT 2SM -SHSN BR OVC006
     FM091400 27010KT 4SM -SHSN BR OVC012=



    US Dept of Commerce
    National Oceanic and Atmospheric Administration
    National Weather Service
    1325 East West Highway
    Silver Spring, MD 20910
    Page Author: NWS Internet Services Team
Disclaimer
Information Quality
Credits
Glossary
Privacy Policy
Freedom of Information Act (FOIA)
About Us
Career Opportunities